sensor_id;sensor_type;location;lat;lon;timestamp;P1;durP1;ratioP1;P2;durP2;ratioP2
78406;SDS011;67692;51.074;-1.790;2023-05-10T00:01:27;19.42;;;5.30;;
78406;SDS011;67692;51.074;-1.790;2023-05-10T00:03:53;17.92;;;6.30;;
78406;SDS011;67692;51.074;-1.790;2023-05-10T00:06:20;16.95;;;5.90;;
78406;SDS011;67692;51.074;-1.790;2023-05-10T00:08:46;16.27;;;6.13;;
78406;SDS011;67692;51.074;-1.790;2023-05-10T00:11:13;16.38;;;5.70;;
78406;SDS011;67692;51.074;-1.790;2023-05-10T00:13:39;14.75;;;5.53;;
78406;SDS011;67692;51.074;-1.790;2023-05-10T00:16:06;17.08;;;6.03;;
78406;SDS011;67692;51.074;-1.790;2023-05-10T00:18:34;17.40;;;6.03;;
78406;SDS011;67692;51.074;-1.790;2023-05-10T00:21:01;19.58;;;6.43;;
78406;SDS011;67692;51.074;-1.790;2023-05-10T00:23:28;19.67;;;6.95;;
78406;SDS011;67692;51.074;-1.790;2023-05-10T00:25:54;21.77;;;5.35;;
78406;SDS011;67692;51.074;-1.790;2023-05-10T00:28:22;14.50;;;6.18;;
78406;SDS011;67692;51.074;-1.790;2023-05-10T00:30:48;15.75;;;5.22;;
78406;SDS011;67692;51.074;-1.790;2023-05-10T00:33:15;18.30;;;5.55;;
78406;SDS011;67692;51.074;-1.790;2023-05-10T00:35:43;13.55;;;5.55;;
78406;SDS011;67692;51.074;-1.790;2023-05-10T00:38:09;15.77;;;5.50;;
78406;SDS011;67692;51.074;-1.790;2023-05-10T00:40:36;18.75;;;5.78;;
78406;SDS011;67692;51.074;-1.790;2023-05-10T00:43:04;20.75;;;6.03;;
78406;SDS011;67692;51.074;-1.790;2023-05-10T00:45:31;17.40;;;5.57;;
78406;SDS011;67692;51.074;-1.790;2023-05-10T00:47:59;17.27;;;6.15;;
78406;SDS011;67692;51.074;-1.790;2023-05-10T00:50:28;18.13;;;5.90;;
78406;SDS011;67692;51.074;-1.790;2023-05-10T00:52:57;21.05;;;5.47;;
78406;SDS011;67692;51.074;-1.790;2023-05-10T00:55:25;16.23;;;6.03;;
78406;SDS011;67692;51.074;-1.790;2023-05-10T00:57:52;17.27;;;5.95;;
78406;SDS011;67692;51.074;-1.790;2023-05-10T01:00:19;21.25;;;6.18;;
78406;SDS011;67692;51.074;-1.790;2023-05-10T01:02:46;16.40;;;6.72;;
78406;SDS011;67692;51.074;-1.790;2023-05-10T01:05:14;20.23;;;6.50;;
78406;SDS011;67692;51.074;-1.790;2023-05-10T01:07:41;18.67;;;6.63;;
78406;SDS011;67692;51.074;-1.790;2023-05-10T01:10:09;15.27;;;5.65;;
78406;SDS011;67692;51.074;-1.790;2023-05-10T01:12:37;18.25;;;5.72;;
78406;SDS011;67692;51.074;-1.790;2023-05-10T01:15:05;19.40;;;6.18;;
78406;SDS011;67692;51.074;-1.790;2023-05-10T01:17:34;15.73;;;5.65;;
78406;SDS011;67692;51.074;-1.790;2023-05-10T01:20:01;19.08;;;6.47;;
78406;SDS011;67692;51.074;-1.790;2023-05-10T01:22:42;22.40;;;4.85;;
78406;SDS011;67692;51.074;-1.790;2023-05-10T01:25:33;12.00;;;4.38;;
78406;SDS011;67692;51.074;-1.790;2023-05-10T01:28:17;15.13;;;5.25;;
78406;SDS011;67692;51.074;-1.790;2023-05-10T01:31:07;14.57;;;4.95;;
78406;SDS011;67692;51.074;-1.790;2023-05-10T01:33:47;22.75;;;4.95;;
78406;SDS011;67692;51.074;-1.790;2023-05-10T01:36:23;16.20;;;5.00;;
78406;SDS011;67692;51.074;-1.790;2023-05-10T01:38:54;15.50;;;4.22;;
78406;SDS011;67692;51.074;-1.790;2023-05-10T01:41:28;12.30;;;4.28;;
78406;SDS011;67692;51.074;-1.790;2023-05-10T01:44:01;17.48;;;4.28;;
78406;SDS011;67692;51.074;-1.790;2023-05-10T01:46:35;12.27;;;4.43;;
78406;SDS011;67692;51.074;-1.790;2023-05-10T01:49:07;14.73;;;4.60;;
78406;SDS011;67692;51.074;-1.790;2023-05-10T01:51:36;16.52;;;4.80;;
78406;SDS011;67692;51.074;-1.790;2023-05-10T01:54:07;12.63;;;4.05;;
78406;SDS011;67692;51.074;-1.790;2023-05-10T01:56:36;12.32;;;3.35;;
78406;SDS011;67692;51.074;-1.790;2023-05-10T01:59:06;11.52;;;3.63;;
78406;SDS011;67692;51.074;-1.790;2023-05-10T02:01:37;18.63;;;3.42;;
78406;SDS011;67692;51.074;-1.790;2023-05-10T02:04:07;15.75;;;3.78;;
78406;SDS011;67692;51.074;-1.790;2023-05-10T02:06:36;8.68;;;3.85;;
78406;SDS011;67692;51.074;-1.790;2023-05-10T02:09:05;13.32;;;3.90;;
78406;SDS011;67692;51.074;-1.790;2023-05-10T02:11:34;18.27;;;3.65;;
78406;SDS011;67692;51.074;-1.790;2023-05-10T02:14:03;13.57;;;3.50;;
78406;SDS011;67692;51.074;-1.790;2023-05-10T02:16:33;12.95;;;2.65;;
78406;SDS011;67692;51.074;-1.790;2023-05-10T02:19:02;15.48;;;3.03;;
78406;SDS011;67692;51.074;-1.790;2023-05-10T02:21:30;16.08;;;3.25;;
78406;SDS011;67692;51.074;-1.790;2023-05-10T02:23:58;17.92;;;3.70;;
78406;SDS011;67692;51.074;-1.790;2023-05-10T02:26:27;12.27;;;2.60;;
78406;SDS011;67692;51.074;-1.790;2023-05-10T02:28:55;18.33;;;2.80;;
78406;SDS011;67692;51.074;-1.790;2023-05-10T02:31:23;17.30;;;3.10;;
78406;SDS011;67692;51.074;-1.790;2023-05-10T02:33:51;10.65;;;2.38;;
78406;SDS011;67692;51.074;-1.790;2023-05-10T02:36:20;16.05;;;3.03;;
78406;SDS011;67692;51.074;-1.790;2023-05-10T02:38:50;10.15;;;2.40;;
78406;SDS011;67692;51.074;-1.790;2023-05-10T02:41:18;17.13;;;2.50;;
78406;SDS011;67692;51.074;-1.790;2023-05-10T02:43:46;15.60;;;4.03;;
78406;SDS011;67692;51.074;-1.790;2023-05-10T02:46:15;14.80;;;3.00;;
78406;SDS011;67692;51.074;-1.790;2023-05-10T02:48:41;21.95;;;2.97;;
78406;SDS011;67692;51.074;-1.790;2023-05-10T02:51:08;13.68;;;3.05;;
78406;SDS011;67692;51.074;-1.790;2023-05-10T02:53:38;18.35;;;3.80;;
78406;SDS011;67692;51.074;-1.790;2023-05-10T02:56:11;14.38;;;2.58;;
78406;SDS011;67692;51.074;-1.790;2023-05-10T02:58:40;11.07;;;2.30;;
78406;SDS011;67692;51.074;-1.790;2023-05-10T03:01:08;13.20;;;2.17;;
78406;SDS011;67692;51.074;-1.790;2023-05-10T03:03:35;13.65;;;2.90;;
78406;SDS011;67692;51.074;-1.790;2023-05-10T03:06:01;21.13;;;2.58;;
78406;SDS011;67692;51.074;-1.790;2023-05-10T03:08:28;14.02;;;2.50;;
78406;SDS011;67692;51.074;-1.790;2023-05-10T03:10:57;5.60;;;2.00;;
78406;SDS011;67692;51.074;-1.790;2023-05-10T03:13:42;13.55;;;2.38;;
78406;SDS011;67692;51.074;-1.790;2023-05-10T03:16:15;11.63;;;2.38;;
78406;SDS011;67692;51.074;-1.790;2023-05-10T03:18:58;10.85;;;2.03;;
78406;SDS011;67692;51.074;-1.790;2023-05-10T03:21:32;10.23;;;2.30;;
78406;SDS011;67692;51.074;-1.790;2023-05-10T03:24:05;15.15;;;2.97;;
78406;SDS011;67692;51.074;-1.790;2023-05-10T03:26:34;22.83;;;2.88;;
78406;SDS011;67692;51.074;-1.790;2023-05-10T03:29:03;12.52;;;2.70;;
78406;SDS011;67692;51.074;-1.790;2023-05-10T03:31:31;8.82;;;1.90;;
78406;SDS011;67692;51.074;-1.790;2023-05-10T03:33:58;29.40;;;3.75;;
78406;SDS011;67692;51.074;-1.790;2023-05-10T03:36:25;18.15;;;2.58;;
78406;SDS011;67692;51.074;-1.790;2023-05-10T03:38:51;15.10;;;2.30;;
78406;SDS011;67692;51.074;-1.790;2023-05-10T03:41:18;12.18;;;2.17;;
78406;SDS011;67692;51.074;-1.790;2023-05-10T03:43:45;6.93;;;2.20;;
78406;SDS011;67692;51.074;-1.790;2023-05-10T03:46:13;17.85;;;2.67;;
78406;SDS011;67692;51.074;-1.790;2023-05-10T03:48:40;10.73;;;2.35;;
78406;SDS011;67692;51.074;-1.790;2023-05-10T03:51:06;19.75;;;2.55;;
78406;SDS011;67692;51.074;-1.790;2023-05-10T03:53:33;15.90;;;3.15;;
78406;SDS011;67692;51.074;-1.790;2023-05-10T03:56:00;13.02;;;2.58;;
78406;SDS011;67692;51.074;-1.790;2023-05-10T03:58:27;13.95;;;2.22;;
78406;SDS011;67692;51.074;-1.790;2023-05-10T04:00:53;12.82;;;1.95;;
78406;SDS011;67692;51.074;-1.790;2023-05-10T04:03:21;22.15;;;2.65;;
78406;SDS011;67692;51.074;-1.790;2023-05-10T04:05:48;10.30;;;2.15;;
78406;SDS011;67692;51.074;-1.790;2023-05-10T04:08:14;14.65;;;2.05;;
78406;SDS011;67692;51.074;-1.790;2023-05-10T04:10:42;18.30;;;2.35;;
78406;SDS011;67692;51.074;-1.790;2023-05-10T04:13:08;13.85;;;2.05;;
78406;SDS011;67692;51.074;-1.790;2023-05-10T04:15:35;19.98;;;3.83;;
78406;SDS011;67692;51.074;-1.790;2023-05-10T04:18:01;11.27;;;1.95;;
78406;SDS011;67692;51.074;-1.790;2023-05-10T04:20:29;12.25;;;2.08;;
78406;SDS011;67692;51.074;-1.790;2023-05-10T04:22:58;15.85;;;2.58;;
78406;SDS011;67692;51.074;-1.790;2023-05-10T04:25:24;16.08;;;2.50;;
78406;SDS011;67692;51.074;-1.790;2023-05-10T04:27:51;11.27;;;2.80;;
78406;SDS011;67692;51.074;-1.790;2023-05-10T04:30:18;14.45;;;2.75;;
78406;SDS011;67692;51.074;-1.790;2023-05-10T04:32:44;16.83;;;3.08;;
78406;SDS011;67692;51.074;-1.790;2023-05-10T04:35:11;13.65;;;2.85;;
78406;SDS011;67692;51.074;-1.790;2023-05-10T04:37:41;15.48;;;2.70;;
78406;SDS011;67692;51.074;-1.790;2023-05-10T04:40:08;15.43;;;2.33;;
78406;SDS011;67692;51.074;-1.790;2023-05-10T04:42:35;26.65;;;3.30;;
78406;SDS011;67692;51.074;-1.790;2023-05-10T04:45:02;14.40;;;3.22;;
78406;SDS011;67692;51.074;-1.790;2023-05-10T04:47:30;18.88;;;2.88;;
78406;SDS011;67692;51.074;-1.790;2023-05-10T04:49:57;19.55;;;3.13;;
78406;SDS011;67692;51.074;-1.790;2023-05-10T04:52:24;20.30;;;2.92;;
78406;SDS011;67692;51.074;-1.790;2023-05-10T04:54:52;12.32;;;2.13;;
78406;SDS011;67692;51.074;-1.790;2023-05-10T04:57:19;15.52;;;3.10;;
78406;SDS011;67692;51.074;-1.790;2023-05-10T04:59:45;15.20;;;3.28;;
78406;SDS011;67692;51.074;-1.790;2023-05-10T05:02:12;14.05;;;2.60;;
78406;SDS011;67692;51.074;-1.790;2023-05-10T05:04:39;12.82;;;2.05;;
78406;SDS011;67692;51.074;-1.790;2023-05-10T05:07:05;12.95;;;3.00;;
78406;SDS011;67692;51.074;-1.790;2023-05-10T05:09:32;14.35;;;2.70;;
78406;SDS011;67692;51.074;-1.790;2023-05-10T05:12:00;14.70;;;3.15;;
78406;SDS011;67692;51.074;-1.790;2023-05-10T05:14:26;17.55;;;2.97;;
78406;SDS011;67692;51.074;-1.790;2023-05-10T05:16:53;12.75;;;2.83;;
78406;SDS011;67692;51.074;-1.790;2023-05-10T05:19:20;18.13;;;3.83;;
78406;SDS011;67692;51.074;-1.790;2023-05-10T05:21:47;12.93;;;2.85;;
78406;SDS011;67692;51.074;-1.790;2023-05-10T05:24:14;14.25;;;3.28;;
78406;SDS011;67692;51.074;-1.790;2023-05-10T05:26:40;14.32;;;3.00;;
78406;SDS011;67692;51.074;-1.790;2023-05-10T05:29:08;20.67;;;3.30;;
78406;SDS011;67692;51.074;-1.790;2023-05-10T05:31:35;20.17;;;3.00;;
78406;SDS011;67692;51.074;-1.790;2023-05-10T05:34:01;19.90;;;3.78;;
78406;SDS011;67692;51.074;-1.790;2023-05-10T05:36:28;17.65;;;2.70;;
78406;SDS011;67692;51.074;-1.790;2023-05-10T05:38:55;16.27;;;3.30;;
78406;SDS011;67692;51.074;-1.790;2023-05-10T05:41:22;12.95;;;3.60;;
78406;SDS011;67692;51.074;-1.790;2023-05-10T05:43:49;13.52;;;2.78;;
78406;SDS011;67692;51.074;-1.790;2023-05-10T05:46:17;19.67;;;3.33;;
78406;SDS011;67692;51.074;-1.790;2023-05-10T05:48:43;15.68;;;3.17;;
78406;SDS011;67692;51.074;-1.790;2023-05-10T05:51:10;22.17;;;3.75;;
78406;SDS011;67692;51.074;-1.790;2023-05-10T05:53:37;15.98;;;3.25;;
78406;SDS011;67692;51.074;-1.790;2023-05-10T05:56:03;17.30;;;3.83;;
78406;SDS011;67692;51.074;-1.790;2023-05-10T05:58:30;17.95;;;3.80;;
78406;SDS011;67692;51.074;-1.790;2023-05-10T06:00:57;19.65;;;4.32;;
78406;SDS011;67692;51.074;-1.790;2023-05-10T06:03:25;16.55;;;3.00;;
78406;SDS011;67692;51.074;-1.790;2023-05-10T06:05:51;26.45;;;5.13;;
78406;SDS011;67692;51.074;-1.790;2023-05-10T06:08:18;18.70;;;3.40;;
78406;SDS011;67692;51.074;-1.790;2023-05-10T06:10:45;16.95;;;3.40;;
78406;SDS011;67692;51.074;-1.790;2023-05-10T06:13:12;14.88;;;3.33;;
78406;SDS011;67692;51.074;-1.790;2023-05-10T06:15:38;17.17;;;3.05;;
78406;SDS011;67692;51.074;-1.790;2023-05-10T06:18:05;14.63;;;3.42;;
78406;SDS011;67692;51.074;-1.790;2023-05-10T06:20:33;15.50;;;2.70;;
78406;SDS011;67692;51.074;-1.790;2023-05-10T06:23:00;11.85;;;2.85;;
78406;SDS011;67692;51.074;-1.790;2023-05-10T06:25:26;17.77;;;3.92;;
78406;SDS011;67692;51.074;-1.790;2023-05-10T06:27:53;14.85;;;2.90;;
78406;SDS011;67692;51.074;-1.790;2023-05-10T06:30:23;17.98;;;3.00;;
78406;SDS011;67692;51.074;-1.790;2023-05-10T06:32:53;14.40;;;2.83;;
78406;SDS011;67692;51.074;-1.790;2023-05-10T06:35:20;15.75;;;3.72;;
78406;SDS011;67692;51.074;-1.790;2023-05-10T06:37:48;23.35;;;3.35;;
78406;SDS011;67692;51.074;-1.790;2023-05-10T06:40:15;11.77;;;2.40;;
78406;SDS011;67692;51.074;-1.790;2023-05-10T06:42:42;12.63;;;2.40;;
78406;SDS011;67692;51.074;-1.790;2023-05-10T06:45:10;15.20;;;2.67;;
78406;SDS011;67692;51.074;-1.790;2023-05-10T06:47:36;14.63;;;2.28;;
78406;SDS011;67692;51.074;-1.790;2023-05-10T06:50:03;14.02;;;2.70;;
78406;SDS011;67692;51.074;-1.790;2023-05-10T06:52:30;20.45;;;2.85;;
78406;SDS011;67692;51.074;-1.790;2023-05-10T06:54:58;11.57;;;2.38;;
78406;SDS011;67692;51.074;-1.790;2023-05-10T06:57:25;13.75;;;2.53;;
78406;SDS011;67692;51.074;-1.790;2023-05-10T06:59:52;16.42;;;2.65;;
78406;SDS011;67692;51.074;-1.790;2023-05-10T07:02:20;12.20;;;1.98;;
78406;SDS011;67692;51.074;-1.790;2023-05-10T07:04:47;18.25;;;2.35;;
78406;SDS011;67692;51.074;-1.790;2023-05-10T07:07:14;14.23;;;2.22;;
78406;SDS011;67692;51.074;-1.790;2023-05-10T07:09:40;14.75;;;3.08;;
78406;SDS011;67692;51.074;-1.790;2023-05-10T07:12:08;12.48;;;2.20;;
78406;SDS011;67692;51.074;-1.790;2023-05-10T07:14:35;12.38;;;2.22;;
78406;SDS011;67692;51.074;-1.790;2023-05-10T07:17:02;10.65;;;1.50;;
78406;SDS011;67692;51.074;-1.790;2023-05-10T07:19:28;13.70;;;2.10;;
78406;SDS011;67692;51.074;-1.790;2023-05-10T07:21:57;9.40;;;1.58;;
78406;SDS011;67692;51.074;-1.790;2023-05-10T07:24:24;12.52;;;1.63;;
78406;SDS011;67692;51.074;-1.790;2023-05-10T07:26:50;10.23;;;2.28;;
78406;SDS011;67692;51.074;-1.790;2023-05-10T07:29:18;10.82;;;1.77;;
78406;SDS011;67692;51.074;-1.790;2023-05-10T07:31:45;16.75;;;1.77;;
78406;SDS011;67692;51.074;-1.790;2023-05-10T07:34:11;13.15;;;1.88;;
78406;SDS011;67692;51.074;-1.790;2023-05-10T07:36:38;15.65;;;1.88;;
78406;SDS011;67692;51.074;-1.790;2023-05-10T07:39:04;9.65;;;2.00;;
78406;SDS011;67692;51.074;-1.790;2023-05-10T07:41:31;12.52;;;2.13;;
78406;SDS011;67692;51.074;-1.790;2023-05-10T07:43:58;9.23;;;1.70;;
78406;SDS011;67692;51.074;-1.790;2023-05-10T07:46:26;9.27;;;1.60;;
78406;SDS011;67692;51.074;-1.790;2023-05-10T07:48:53;8.55;;;1.52;;
78406;SDS011;67692;51.074;-1.790;2023-05-10T07:51:20;16.08;;;2.38;;
78406;SDS011;67692;51.074;-1.790;2023-05-10T07:53:46;13.13;;;2.40;;
78406;SDS011;67692;51.074;-1.790;2023-05-10T07:56:19;9.73;;;2.28;;
78406;SDS011;67692;51.074;-1.790;2023-05-10T07:58:47;14.18;;;2.47;;
78406;SDS011;67692;51.074;-1.790;2023-05-10T08:01:14;10.52;;;1.40;;
78406;SDS011;67692;51.074;-1.790;2023-05-10T08:03:42;10.98;;;1.63;;
78406;SDS011;67692;51.074;-1.790;2023-05-10T08:06:08;6.13;;;1.40;;
78406;SDS011;67692;51.074;-1.790;2023-05-10T08:08:35;10.27;;;1.52;;
78406;SDS011;67692;51.074;-1.790;2023-05-10T08:11:02;4.68;;;1.50;;
78406;SDS011;67692;51.074;-1.790;2023-05-10T08:13:29;8.50;;;1.80;;
78406;SDS011;67692;51.074;-1.790;2023-05-10T08:15:56;4.25;;;1.15;;
78406;SDS011;67692;51.074;-1.790;2023-05-10T08:18:22;24.83;;;2.83;;
78406;SDS011;67692;51.074;-1.790;2023-05-10T08:20:51;12.30;;;2.28;;
78406;SDS011;67692;51.074;-1.790;2023-05-10T08:23:17;13.18;;;2.40;;
78406;SDS011;67692;51.074;-1.790;2023-05-10T08:25:44;8.98;;;1.45;;
78406;SDS011;67692;51.074;-1.790;2023-05-10T08:28:10;11.98;;;1.40;;
78406;SDS011;67692;51.074;-1.790;2023-05-10T08:30:37;11.07;;;1.58;;
78406;SDS011;67692;51.074;-1.790;2023-05-10T08:33:03;8.35;;;1.35;;
78406;SDS011;67692;51.074;-1.790;2023-05-10T08:35:30;9.50;;;1.73;;
78406;SDS011;67692;51.074;-1.790;2023-05-10T08:37:59;15.77;;;1.85;;
78406;SDS011;67692;51.074;-1.790;2023-05-10T08:40:26;8.02;;;1.60;;
78406;SDS011;67692;51.074;-1.790;2023-05-10T08:42:55;9.25;;;1.83;;
78406;SDS011;67692;51.074;-1.790;2023-05-10T08:45:25;10.00;;;1.48;;
78406;SDS011;67692;51.074;-1.790;2023-05-10T08:47:56;12.20;;;2.15;;
78406;SDS011;67692;51.074;-1.790;2023-05-10T08:50:23;9.43;;;1.38;;
78406;SDS011;67692;51.074;-1.790;2023-05-10T08:52:51;15.13;;;1.58;;
78406;SDS011;67692;51.074;-1.790;2023-05-10T08:55:23;10.52;;;1.80;;
78406;SDS011;67692;51.074;-1.790;2023-05-10T08:57:50;17.45;;;1.95;;
78406;SDS011;67692;51.074;-1.790;2023-05-10T09:00:16;6.60;;;1.42;;
78406;SDS011;67692;51.074;-1.790;2023-05-10T09:02:44;5.85;;;1.25;;
78406;SDS011;67692;51.074;-1.790;2023-05-10T09:05:11;6.35;;;1.15;;
78406;SDS011;67692;51.074;-1.790;2023-05-10T09:07:40;8.20;;;1.48;;
78406;SDS011;67692;51.074;-1.790;2023-05-10T09:10:07;10.70;;;1.10;;
78406;SDS011;67692;51.074;-1.790;2023-05-10T09:12:36;8.73;;;1.20;;
78406;SDS011;67692;51.074;-1.790;2023-05-10T09:15:04;5.38;;;1.30;;
78406;SDS011;67692;51.074;-1.790;2023-05-10T09:17:33;8.15;;;1.48;;
78406;SDS011;67692;51.074;-1.790;2023-05-10T09:20:00;8.68;;;1.60;;
78406;SDS011;67692;51.074;-1.790;2023-05-10T09:22:29;6.38;;;1.30;;
78406;SDS011;67692;51.074;-1.790;2023-05-10T09:25:06;10.88;;;1.65;;
78406;SDS011;67692;51.074;-1.790;2023-05-10T09:27:34;8.05;;;1.40;;
78406;SDS011;67692;51.074;-1.790;2023-05-10T09:30:02;8.05;;;1.50;;
78406;SDS011;67692;51.074;-1.790;2023-05-10T09:32:36;8.57;;;1.40;;
78406;SDS011;67692;51.074;-1.790;2023-05-10T09:35:07;7.50;;;1.40;;
78406;SDS011;67692;51.074;-1.790;2023-05-10T09:37:34;12.60;;;1.83;;
78406;SDS011;67692;51.074;-1.790;2023-05-10T09:40:04;9.93;;;1.25;;
78406;SDS011;67692;51.074;-1.790;2023-05-10T09:42:32;9.13;;;1.30;;
78406;SDS011;67692;51.074;-1.790;2023-05-10T09:45:00;10.90;;;1.85;;
78406;SDS011;67692;51.074;-1.790;2023-05-10T09:49:57;7.07;;;1.58;;
78406;SDS011;67692;51.074;-1.790;2023-05-10T09:52:28;6.57;;;1.02;;
78406;SDS011;67692;51.074;-1.790;2023-05-10T09:54:55;9.25;;;1.38;;
78406;SDS011;67692;51.074;-1.790;2023-05-10T09:57:22;7.60;;;1.27;;
78406;SDS011;67692;51.074;-1.790;2023-05-10T09:59:49;7.25;;;1.27;;
78406;SDS011;67692;51.074;-1.790;2023-05-10T10:02:19;7.65;;;1.48;;
78406;SDS011;67692;51.074;-1.790;2023-05-10T10:04:48;9.00;;;1.60;;
78406;SDS011;67692;51.074;-1.790;2023-05-10T10:07:17;3.90;;;1.10;;
78406;SDS011;67692;51.074;-1.790;2023-05-10T10:09:50;5.43;;;1.38;;
78406;SDS011;67692;51.074;-1.790;2023-05-10T10:12:18;5.57;;;1.38;;
78406;SDS011;67692;51.074;-1.790;2023-05-10T10:14:45;7.43;;;1.25;;
78406;SDS011;67692;51.074;-1.790;2023-05-10T10:17:13;8.55;;;1.38;;
78406;SDS011;67692;51.074;-1.790;2023-05-10T10:19:42;7.32;;;1.15;;
78406;SDS011;67692;51.074;-1.790;2023-05-10T10:22:09;6.63;;;1.48;;
78406;SDS011;67692;51.074;-1.790;2023-05-10T10:24:37;5.57;;;1.63;;
78406;SDS011;67692;51.074;-1.790;2023-05-10T10:27:07;6.53;;;1.05;;
78406;SDS011;67692;51.074;-1.790;2023-05-10T10:29:44;6.97;;;1.05;;
78406;SDS011;67692;51.074;-1.790;2023-05-10T10:32:20;4.80;;;1.00;;
78406;SDS011;67692;51.074;-1.790;2023-05-10T10:34:53;8.52;;;1.40;;
78406;SDS011;67692;51.074;-1.790;2023-05-10T10:37:21;8.10;;;1.30;;
78406;SDS011;67692;51.074;-1.790;2023-05-10T10:39:48;6.50;;;1.63;;
78406;SDS011;67692;51.074;-1.790;2023-05-10T10:42:15;5.72;;;1.17;;
78406;SDS011;67692;51.074;-1.790;2023-05-10T10:45:11;10.90;;;1.63;;
78406;SDS011;67692;51.074;-1.790;2023-05-10T10:47:38;6.55;;;1.50;;
78406;SDS011;67692;51.074;-1.790;2023-05-10T10:50:07;11.38;;;1.70;;
78406;SDS011;67692;51.074;-1.790;2023-05-10T10:52:35;6.43;;;1.50;;
78406;SDS011;67692;51.074;-1.790;2023-05-10T10:55:02;4.88;;;1.10;;
78406;SDS011;67692;51.074;-1.790;2023-05-10T10:57:31;4.20;;;1.20;;
78406;SDS011;67692;51.074;-1.790;2023-05-10T11:00:18;11.88;;;1.60;;
78406;SDS011;67692;51.074;-1.790;2023-05-10T11:02:49;5.13;;;1.20;;
78406;SDS011;67692;51.074;-1.790;2023-05-10T11:08:11;6.20;;;1.15;;
78406;SDS011;67692;51.074;-1.790;2023-05-10T11:10:39;7.75;;;1.30;;
78406;SDS011;67692;51.074;-1.790;2023-05-10T11:13:07;6.57;;;1.25;;
78406;SDS011;67692;51.074;-1.790;2023-05-10T11:15:35;5.00;;;0.90;;
78406;SDS011;67692;51.074;-1.790;2023-05-10T11:18:16;3.70;;;0.88;;
78406;SDS011;67692;51.074;-1.790;2023-05-10T11:20:46;8.25;;;1.27;;
78406;SDS011;67692;51.074;-1.790;2023-05-10T11:23:17;6.47;;;1.00;;
78406;SDS011;67692;51.074;-1.790;2023-05-10T11:25:45;5.15;;;0.73;;
78406;SDS011;67692;51.074;-1.790;2023-05-10T11:28:12;3.95;;;0.73;;
78406;SDS011;67692;51.074;-1.790;2023-05-10T11:30:39;4.47;;;0.80;;
78406;SDS011;67692;51.074;-1.790;2023-05-10T11:33:06;8.57;;;1.13;;
78406;SDS011;67692;51.074;-1.790;2023-05-10T11:35:37;6.18;;;0.90;;
78406;SDS011;67692;51.074;-1.790;2023-05-10T11:38:06;5.50;;;0.85;;
78406;SDS011;67692;51.074;-1.790;2023-05-10T11:40:34;10.27;;;1.65;;
78406;SDS011;67692;51.074;-1.790;2023-05-10T11:43:01;8.20;;;1.30;;
78406;SDS011;67692;51.074;-1.790;2023-05-10T11:45:28;6.50;;;1.55;;
78406;SDS011;67692;51.074;-1.790;2023-05-10T11:47:56;7.53;;;1.02;;
78406;SDS011;67692;51.074;-1.790;2023-05-10T11:50:23;9.93;;;1.50;;
78406;SDS011;67692;51.074;-1.790;2023-05-10T11:52:51;6.63;;;1.10;;
78406;SDS011;67692;51.074;-1.790;2023-05-10T11:55:19;6.60;;;1.00;;
78406;SDS011;67692;51.074;-1.790;2023-05-10T11:57:46;8.82;;;1.55;;
78406;SDS011;67692;51.074;-1.790;2023-05-10T12:00:13;9.93;;;1.27;;
78406;SDS011;67692;51.074;-1.790;2023-05-10T12:02:40;5.82;;;1.10;;
78406;SDS011;67692;51.074;-1.790;2023-05-10T12:05:07;6.57;;;1.35;;
78406;SDS011;67692;51.074;-1.790;2023-05-10T12:07:35;6.20;;;1.25;;
78406;SDS011;67692;51.074;-1.790;2023-05-10T12:10:02;7.50;;;1.25;;
78406;SDS011;67692;51.074;-1.790;2023-05-10T12:12:36;7.68;;;1.50;;
78406;SDS011;67692;51.074;-1.790;2023-05-10T12:15:04;5.57;;;1.00;;
78406;SDS011;67692;51.074;-1.790;2023-05-10T12:17:32;7.90;;;1.10;;
78406;SDS011;67692;51.074;-1.790;2023-05-10T12:19:59;4.22;;;1.05;;
78406;SDS011;67692;51.074;-1.790;2023-05-10T12:22:38;6.57;;;0.80;;
78406;SDS011;67692;51.074;-1.790;2023-05-10T12:25:06;4.50;;;1.00;;
78406;SDS011;67692;51.074;-1.790;2023-05-10T12:27:36;10.80;;;1.40;;
78406;SDS011;67692;51.074;-1.790;2023-05-10T12:30:03;7.78;;;1.55;;
78406;SDS011;67692;51.074;-1.790;2023-05-10T12:32:39;8.55;;;1.30;;
78406;SDS011;67692;51.074;-1.790;2023-05-10T12:35:06;7.00;;;1.00;;
78406;SDS011;67692;51.074;-1.790;2023-05-10T12:37:34;5.20;;;0.85;;
78406;SDS011;67692;51.074;-1.790;2023-05-10T12:40:05;9.25;;;1.50;;
78406;SDS011;67692;51.074;-1.790;2023-05-10T12:42:33;7.25;;;1.10;;
78406;SDS011;67692;51.074;-1.790;2023-05-10T12:45:02;5.40;;;1.27;;
78406;SDS011;67692;51.074;-1.790;2023-05-10T12:47:28;7.75;;;1.10;;
78406;SDS011;67692;51.074;-1.790;2023-05-10T12:49:55;7.65;;;1.00;;
78406;SDS011;67692;51.074;-1.790;2023-05-10T12:52:22;11.45;;;1.20;;
78406;SDS011;67692;51.074;-1.790;2023-05-10T12:54:48;6.63;;;1.20;;
78406;SDS011;67692;51.074;-1.790;2023-05-10T12:57:15;6.40;;;1.05;;
78406;SDS011;67692;51.074;-1.790;2023-05-10T12:59:41;11.63;;;1.30;;
78406;SDS011;67692;51.074;-1.790;2023-05-10T13:02:09;7.20;;;1.30;;
78406;SDS011;67692;51.074;-1.790;2023-05-10T13:04:36;8.50;;;0.93;;
78406;SDS011;67692;51.074;-1.790;2023-05-10T13:07:04;9.05;;;1.30;;
78406;SDS011;67692;51.074;-1.790;2023-05-10T13:09:31;8.90;;;1.13;;
78406;SDS011;67692;51.074;-1.790;2023-05-10T13:11:58;8.52;;;0.95;;
78406;SDS011;67692;51.074;-1.790;2023-05-10T13:14:25;7.70;;;1.13;;
78406;SDS011;67692;51.074;-1.790;2023-05-10T13:16:52;5.43;;;1.13;;
78406;SDS011;67692;51.074;-1.790;2023-05-10T13:19:20;8.77;;;1.20;;
78406;SDS011;67692;51.074;-1.790;2023-05-10T13:21:46;9.43;;;1.35;;
78406;SDS011;67692;51.074;-1.790;2023-05-10T13:24:13;4.15;;;1.23;;
78406;SDS011;67692;51.074;-1.790;2023-05-10T13:26:40;8.60;;;1.23;;
78406;SDS011;67692;51.074;-1.790;2023-05-10T13:29:06;5.60;;;1.08;;
78406;SDS011;67692;51.074;-1.790;2023-05-10T13:31:33;5.85;;;1.20;;
78406;SDS011;67692;51.074;-1.790;2023-05-10T13:34:00;9.82;;;1.13;;
78406;SDS011;67692;51.074;-1.790;2023-05-10T13:36:28;3.70;;;0.93;;
78406;SDS011;67692;51.074;-1.790;2023-05-10T13:38:55;6.32;;;1.27;;
78406;SDS011;67692;51.074;-1.790;2023-05-10T13:41:22;8.23;;;1.40;;
78406;SDS011;67692;51.074;-1.790;2023-05-10T13:43:48;6.80;;;1.10;;
78406;SDS011;67692;51.074;-1.790;2023-05-10T13:46:15;9.40;;;1.33;;
78406;SDS011;67692;51.074;-1.790;2023-05-10T13:48:41;9.73;;;1.90;;
78406;SDS011;67692;51.074;-1.790;2023-05-10T13:51:08;7.68;;;1.52;;
78406;SDS011;67692;51.074;-1.790;2023-05-10T13:53:36;2.92;;;0.77;;
78406;SDS011;67692;51.074;-1.790;2023-05-10T13:56:02;6.22;;;1.17;;
78406;SDS011;67692;51.074;-1.790;2023-05-10T13:58:29;7.70;;;1.20;;
78406;SDS011;67692;51.074;-1.790;2023-05-10T14:00:55;7.68;;;1.10;;
78406;SDS011;67692;51.074;-1.790;2023-05-10T14:03:22;7.72;;;1.23;;
78406;SDS011;67692;51.074;-1.790;2023-05-10T14:05:49;8.52;;;1.90;;
78406;SDS011;67692;51.074;-1.790;2023-05-10T14:08:16;6.18;;;1.00;;
78406;SDS011;67692;51.074;-1.790;2023-05-10T14:10:44;4.93;;;1.10;;
78406;SDS011;67692;51.074;-1.790;2023-05-10T14:13:10;8.60;;;1.40;;
78406;SDS011;67692;51.074;-1.790;2023-05-10T14:15:37;3.38;;;0.80;;
78406;SDS011;67692;51.074;-1.790;2023-05-10T14:18:03;5.00;;;1.52;;
78406;SDS011;67692;51.074;-1.790;2023-05-10T14:20:30;3.53;;;0.50;;
78406;SDS011;67692;51.074;-1.790;2023-05-10T14:22:58;3.28;;;0.70;;
78406;SDS011;67692;51.074;-1.790;2023-05-10T14:25:25;2.55;;;0.43;;
78406;SDS011;67692;51.074;-1.790;2023-05-10T14:27:53;2.78;;;0.55;;
78406;SDS011;67692;51.074;-1.790;2023-05-10T14:30:20;3.50;;;0.52;;
78406;SDS011;67692;51.074;-1.790;2023-05-10T14:32:46;4.97;;;0.60;;
78406;SDS011;67692;51.074;-1.790;2023-05-10T14:35:13;2.67;;;0.47;;
78406;SDS011;67692;51.074;-1.790;2023-05-10T14:37:40;7.22;;;0.75;;